createdAt,value
2022-11-29T00:01:04.192Z,11.75
2022-11-29T00:03:32.723Z,11.45
2022-11-29T00:06:14.043Z,11.52
2022-11-29T00:08:43.919Z,11.70
2022-11-29T00:11:39.216Z,12.07
2022-11-29T00:14:07.156Z,12.70
2022-11-29T00:16:34.014Z,12.02
2022-11-29T00:19:00.930Z,11.38
2022-11-29T00:21:27.856Z,12.15
2022-11-29T00:23:54.317Z,11.57
2022-11-29T00:26:22.095Z,11.10
2022-11-29T00:28:48.591Z,12.02
2022-11-29T00:31:15.596Z,13.23
2022-11-29T00:33:42.208Z,12.13
2022-11-29T00:36:08.708Z,11.85
2022-11-29T00:38:35.649Z,11.82
2022-11-29T00:41:02.124Z,11.63
2022-11-29T00:43:28.862Z,11.88
2022-11-29T00:45:57.248Z,12.40
2022-11-29T00:48:23.722Z,12.32
2022-11-29T00:50:50.519Z,11.45
2022-11-29T00:53:17.341Z,12.15
2022-11-29T00:55:45.138Z,13.02
2022-11-29T00:58:11.570Z,11.85
2022-11-29T01:00:38.316Z,12.00
2022-11-29T01:03:04.896Z,12.13
2022-11-29T01:05:31.932Z,11.93
2022-11-29T01:07:59.600Z,11.85
2022-11-29T01:10:26.729Z,12.57
2022-11-29T01:12:53.786Z,12.18
2022-11-29T01:15:20.621Z,11.70
2022-11-29T01:17:49.346Z,11.40
2022-11-29T01:20:16.270Z,12.55
2022-11-29T01:22:43.035Z,13.15
2022-11-29T01:25:11.648Z,11.65
2022-11-29T01:27:38.230Z,12.30
2022-11-29T01:30:07.067Z,11.40
2022-11-29T01:32:33.759Z,11.32
2022-11-29T01:35:00.180Z,11.40
2022-11-29T01:37:29.088Z,11.15
2022-11-29T01:39:55.473Z,12.20
2022-11-29T01:42:22.087Z,11.32
2022-11-29T01:45:03.454Z,12.65
2022-11-29T01:47:55.380Z,10.73
2022-11-29T01:50:42.806Z,11.60
2022-11-29T01:53:29.393Z,11.30
2022-11-29T01:56:16.592Z,11.45
2022-11-29T01:59:07.831Z,11.32
2022-11-29T02:02:01.497Z,11.75
2022-11-29T02:04:33.090Z,11.23
2022-11-29T02:06:59.952Z,13.35
2022-11-29T02:09:26.708Z,12.25
2022-11-29T02:12:00.591Z,14.55
2022-11-29T02:14:58.936Z,13.07
2022-11-29T02:17:56.927Z,14.00
2022-11-29T02:20:27.095Z,17.17
2022-11-29T02:23:07.538Z,16.95
2022-11-29T02:25:40.531Z,15.10
2022-11-29T02:28:41.002Z,13.85
2022-11-29T02:31:29.359Z,12.30
2022-11-29T02:34:20.880Z,13.48
2022-11-29T02:37:42.285Z,12.38
2022-11-29T02:40:41.563Z,12.77
2022-11-29T02:43:17.092Z,12.55
2022-11-29T02:45:56.588Z,13.07
2022-11-29T02:48:35.982Z,13.05
2022-11-29T02:51:17.913Z,12.10
2022-11-29T02:53:52.209Z,12.77
2022-11-29T02:57:01.262Z,12.77
2022-11-29T02:59:36.500Z,12.68
2022-11-29T03:02:20.108Z,12.10
2022-11-29T03:05:12.204Z,12.38
2022-11-29T03:07:53.585Z,13.10
2022-11-29T03:10:35.824Z,11.90
2022-11-29T03:13:05.363Z,12.27
2022-11-29T03:16:01.937Z,12.45
2022-11-29T03:18:36.530Z,12.07
2022-11-29T03:21:24.594Z,12.95
2022-11-29T03:23:55.059Z,12.02
2022-11-29T03:26:46.077Z,12.75
2022-11-29T03:29:26.681Z,12.95
2022-11-29T03:34:45.568Z,14.05
2022-11-29T03:37:24.511Z,14.20
2022-11-29T03:39:59.366Z,14.13
2022-11-29T03:42:44.253Z,13.90
2022-11-29T03:45:35.020Z,13.60
2022-11-29T03:50:44.236Z,13.57
2022-11-29T03:53:23.725Z,14.20
2022-11-29T03:55:55.318Z,14.82
2022-11-29T03:58:24.770Z,13.93
2022-11-29T04:01:26.835Z,14.48
2022-11-29T04:04:36.156Z,14.00
2022-11-29T04:07:27.481Z,14.68
2022-11-29T04:09:59.650Z,14.18
2022-11-29T04:12:36.031Z,14.43
2022-11-29T04:15:39.727Z,15.70
2022-11-29T04:18:13.115Z,14.15
2022-11-29T04:21:04.654Z,13.93
2022-11-29T04:24:13.487Z,14.45
2022-11-29T04:27:11.329Z,15.23
2022-11-29T04:30:15.294Z,15.50
2022-11-29T04:32:45.355Z,16.25
2022-11-29T04:35:30.759Z,16.30
2022-11-29T04:38:40.334Z,15.40
2022-11-29T04:41:50.127Z,15.90
2022-11-29T04:44:27.329Z,16.47
2022-11-29T04:47:26.540Z,17.25
2022-11-29T04:50:12.788Z,16.42
2022-11-29T04:52:56.018Z,17.40
2022-11-29T04:55:49.481Z,18.38
2022-11-29T04:58:39.685Z,19.60
2022-11-29T05:01:30.293Z,19.25
2022-11-29T05:04:06.592Z,20.42
2022-11-29T05:06:50.588Z,19.85
2022-11-29T05:09:35.810Z,19.67
2022-11-29T05:12:06.056Z,21.02
2022-11-29T05:14:54.005Z,18.65
2022-11-29T05:17:50.625Z,20.77
2022-11-29T05:20:41.454Z,19.25
2022-11-29T05:23:24.678Z,20.50
2022-11-29T05:26:05.114Z,20.15
2022-11-29T05:28:51.215Z,21.00
2022-11-29T05:31:30.715Z,19.70
2022-11-29T05:34:19.117Z,20.40
2022-11-29T05:37:10.343Z,21.13
2022-11-29T05:39:41.241Z,19.70
2022-11-29T05:42:52.009Z,19.65
2022-11-29T05:45:27.494Z,19.20
2022-11-29T05:48:02.466Z,20.60
2022-11-29T05:50:39.950Z,20.67
2022-11-29T05:53:28.014Z,20.83
2022-11-29T05:56:11.395Z,20.35
2022-11-29T05:58:48.820Z,19.58
2022-11-29T06:01:29.816Z,18.80
2022-11-29T06:04:19.470Z,19.27
2022-11-29T06:06:50.756Z,18.60
2022-11-29T06:09:39.740Z,19.75
2022-11-29T06:12:18.252Z,20.92
2022-11-29T06:15:13.542Z,21.15
2022-11-29T06:18:02.088Z,20.92
2022-11-29T06:21:06.282Z,21.33
2022-11-29T06:23:51.372Z,20.75
2022-11-29T06:26:36.205Z,21.15
2022-11-29T06:29:25.274Z,21.58
2022-11-29T06:32:03.097Z,21.35
2022-11-29T06:34:37.703Z,20.98
2022-11-29T06:37:16.448Z,21.67
2022-11-29T06:39:43.700Z,21.20
2022-11-29T06:42:10.250Z,21.15
2022-11-29T06:44:37.058Z,22.40
2022-11-29T06:47:08.484Z,21.25
2022-11-29T06:50:01.553Z,22.40
2022-11-29T06:52:46.580Z,21.42
2022-11-29T06:55:40.407Z,23.75
2022-11-29T06:58:06.941Z,23.70
2022-11-29T07:00:43.694Z,23.13
2022-11-29T07:03:38.535Z,25.50
2022-11-29T07:06:15.512Z,25.02
2022-11-29T07:08:42.846Z,24.63
2022-11-29T07:11:13.428Z,21.17
2022-11-29T07:13:40.248Z,22.23
2022-11-29T07:16:17.379Z,22.80
2022-11-29T07:19:00.910Z,22.77
2022-11-29T07:21:58.572Z,23.10
2022-11-29T07:24:51.098Z,22.00
2022-11-29T07:27:29.651Z,23.10
2022-11-29T07:30:51.009Z,22.95
2022-11-29T07:33:29.357Z,23.63
2022-11-29T07:36:09.217Z,21.95
2022-11-29T07:38:54.260Z,22.52
2022-11-29T07:41:32.105Z,22.33
2022-11-29T07:44:11.533Z,23.10
2022-11-29T07:46:38.385Z,24.70
2022-11-29T07:49:06.090Z,22.67
2022-11-29T07:51:32.714Z,23.25
2022-11-29T07:53:59.941Z,22.67
2022-11-29T07:56:26.480Z,23.27
2022-11-29T07:58:53.092Z,24.00
2022-11-29T08:01:20.208Z,22.27
2022-11-29T08:03:46.777Z,23.17
2022-11-29T08:06:13.327Z,22.95
2022-11-29T08:08:43.904Z,24.08
2022-11-29T08:11:12.562Z,23.98
2022-11-29T08:13:39.267Z,22.60
2022-11-29T08:16:06.510Z,22.95
2022-11-29T08:18:33.538Z,22.08
2022-11-29T08:21:05.852Z,21.20
2022-11-29T08:23:32.425Z,22.30
2022-11-29T08:26:01.003Z,20.88
2022-11-29T08:28:27.524Z,20.83
2022-11-29T08:31:06.096Z,20.35
2022-11-29T08:33:35.882Z,21.85
2022-11-29T08:36:15.366Z,22.40
2022-11-29T08:38:42.130Z,21.63
2022-11-29T08:41:10.945Z,19.70
2022-11-29T08:43:37.749Z,21.23
2022-11-29T08:46:04.392Z,20.90
2022-11-29T08:48:31.273Z,19.90
2022-11-29T08:50:58.152Z,21.48
2022-11-29T08:53:44.544Z,20.52
2022-11-29T08:57:04.280Z,20.13
2022-11-29T08:59:05.998Z,19.25
2022-11-29T09:01:32.635Z,19.13
2022-11-29T09:04:07.266Z,18.73
2022-11-29T09:06:44.359Z,19.27
2022-11-29T09:09:11.137Z,20.30
2022-11-29T09:11:37.610Z,20.13
2022-11-29T09:14:07.233Z,19.80
2022-11-29T09:16:38.395Z,20.43
2022-11-29T09:19:05.814Z,20.10
2022-11-29T09:21:37.623Z,20.95
2022-11-29T09:24:06.407Z,19.85
2022-11-29T09:26:35.656Z,20.08
2022-11-29T09:29:04.364Z,21.35
2022-11-29T09:31:31.769Z,22.10
2022-11-29T09:33:58.669Z,20.77
2022-11-29T09:36:28.928Z,19.65
2022-11-29T09:41:49.778Z,18.50
2022-11-29T09:44:48.811Z,19.50
2022-11-29T09:47:40.127Z,21.00
2022-11-29T09:50:31.225Z,18.80
2022-11-29T09:53:45.899Z,20.08
2022-11-29T09:56:26.783Z,21.25
2022-11-29T09:59:09.633Z,19.73
2022-11-29T10:01:45.276Z,20.02
2022-11-29T10:04:19.836Z,20.13
2022-11-29T10:06:58.912Z,18.42
2022-11-29T10:09:44.438Z,19.67
2022-11-29T10:12:17.218Z,17.88
2022-11-29T10:14:50.070Z,17.17
2022-11-29T10:17:39.908Z,16.48
2022-11-29T10:20:16.726Z,16.48
2022-11-29T10:23:03.241Z,16.23
2022-11-29T10:25:35.781Z,16.92
2022-11-29T10:28:05.179Z,16.20
2022-11-29T10:30:35.610Z,15.45
2022-11-29T10:33:02.903Z,14.30
2022-11-29T10:35:35.879Z,14.07
2022-11-29T10:40:58.947Z,14.25
2022-11-29T10:43:26.417Z,14.02
2022-11-29T10:45:56.293Z,13.85
2022-11-29T10:48:27.215Z,13.70
2022-11-29T10:50:54.216Z,14.95
2022-11-29T10:53:37.377Z,15.80
2022-11-29T10:56:08.752Z,16.35
2022-11-29T10:58:36.094Z,15.55
2022-11-29T11:01:07.632Z,17.02
2022-11-29T11:03:42.249Z,16.17
2022-11-29T11:06:15.576Z,16.88
2022-11-29T11:09:12.780Z,16.63
2022-11-29T11:11:40.180Z,16.35
2022-11-29T11:14:23.907Z,17.65
2022-11-29T11:16:51.743Z,17.48
2022-11-29T11:19:32.926Z,18.02
2022-11-29T11:22:01.820Z,18.60
2022-11-29T11:24:31.271Z,18.90
2022-11-29T11:26:58.802Z,18.23
2022-11-29T11:29:33.568Z,19.23
2022-11-29T11:32:00.694Z,18.33
2022-11-29T11:34:34.258Z,18.45
2022-11-29T11:37:19.232Z,18.50
2022-11-29T11:39:48.897Z,18.20
2022-11-29T11:42:38.604Z,16.98
2022-11-29T11:45:11.181Z,18.15
2022-11-29T11:47:51.456Z,16.52
2022-11-29T11:50:32.717Z,15.57
2022-11-29T11:53:03.897Z,14.75
2022-11-29T11:55:33.060Z,14.25
2022-11-29T11:58:12.006Z,16.65
2022-11-29T12:03:40.703Z,16.42
2022-11-29T12:06:25.710Z,15.88
2022-11-29T12:09:21.684Z,16.42
2022-11-29T12:12:02.085Z,16.08
2022-11-29T12:14:51.755Z,16.58
2022-11-29T12:17:36.961Z,17.40
2022-11-29T12:20:20.486Z,16.05
2022-11-29T12:22:53.092Z,16.02
2022-11-29T12:25:26.391Z,15.57
2022-11-29T12:27:53.018Z,15.38
2022-11-29T12:30:19.902Z,16.58
2022-11-29T12:33:08.385Z,15.77
2022-11-29T12:35:53.774Z,15.85
2022-11-29T12:38:28.354Z,16.40
2022-11-29T12:41:16.246Z,17.00
2022-11-29T12:44:20.193Z,18.80
2022-11-29T12:50:30.517Z,18.75
2022-11-29T12:53:16.191Z,18.17
2022-11-29T12:56:10.798Z,18.40
2022-11-29T12:58:46.181Z,19.48
2022-11-29T13:01:51.037Z,19.85
2022-11-29T13:04:43.454Z,17.95
2022-11-29T13:07:30.934Z,17.88
2022-11-29T13:10:18.022Z,18.88
2022-11-29T13:13:02.914Z,20.83
2022-11-29T13:15:44.576Z,20.95
2022-11-29T13:18:22.734Z,21.10
2022-11-29T13:21:18.218Z,21.92
2022-11-29T13:24:08.887Z,22.92
2022-11-29T13:26:38.987Z,24.50
2022-11-29T13:29:07.365Z,25.75
2022-11-29T13:31:34.388Z,23.85
2022-11-29T13:34:27.248Z,24.05
2022-11-29T13:37:42.005Z,24.42
2022-11-29T13:40:37.742Z,24.92
2022-11-29T13:43:19.759Z,24.48
2022-11-29T13:45:52.483Z,24.15
2022-11-29T13:48:34.558Z,24.83
2022-11-29T13:51:22.995Z,26.38
2022-11-29T13:53:49.766Z,27.77
2022-11-29T13:56:48.745Z,27.98
2022-11-29T13:59:28.883Z,29.40
2022-11-29T14:01:56.868Z,29.52
2022-11-29T14:04:26.383Z,27.98
2022-11-29T14:07:15.300Z,28.92
2022-11-29T14:09:59.114Z,30.67
2022-11-29T14:12:28.921Z,30.70
2022-11-29T14:15:03.013Z,32.28
2022-11-29T14:17:48.172Z,31.90
2022-11-29T14:20:43.813Z,29.50
2022-11-29T14:23:16.044Z,29.80
2022-11-29T14:26:02.430Z,29.83
2022-11-29T14:28:34.269Z,28.25
2022-11-29T14:31:02.972Z,34.05
2022-11-29T14:34:12.738Z,30.60
2022-11-29T14:36:50.066Z,30.43
2022-11-29T14:39:29.854Z,33.17
2022-11-29T14:42:16.812Z,32.60
2022-11-29T14:44:52.564Z,35.17
2022-11-29T14:47:19.049Z,30.90
2022-11-29T14:49:46.707Z,31.58
2022-11-29T14:52:13.102Z,31.35
2022-11-29T14:54:57.712Z,30.63
2022-11-29T14:57:49.757Z,32.28
2022-11-29T15:00:18.968Z,29.73
2022-11-29T15:03:25.039Z,31.10
2022-11-29T15:06:06.197Z,31.48
2022-11-29T15:08:40.620Z,32.92
2022-11-29T15:11:10.202Z,33.05
2022-11-29T15:13:54.484Z,33.30
2022-11-29T15:16:44.575Z,34.10
2022-11-29T15:19:31.485Z,31.27
2022-11-29T15:22:06.350Z,32.50
2022-11-29T15:24:49.999Z,32.00
2022-11-29T15:27:18.057Z,32.03
2022-11-29T15:29:52.189Z,33.58
2022-11-29T15:32:25.993Z,33.50
2022-11-29T15:34:55.772Z,33.17
2022-11-29T15:37:31.727Z,32.00
2022-11-29T15:40:06.651Z,30.23
2022-11-29T15:42:54.003Z,31.23
2022-11-29T15:45:33.262Z,33.58
2022-11-29T15:48:15.703Z,31.13
2022-11-29T15:51:00.077Z,32.00
2022-11-29T15:53:43.217Z,32.30
2022-11-29T15:56:30.976Z,32.03
2022-11-29T15:59:02.314Z,31.02
2022-11-29T16:01:29.630Z,31.25
2022-11-29T16:03:57.318Z,32.55
2022-11-29T16:06:27.090Z,30.88
2022-11-29T16:08:54.325Z,31.42
2022-11-29T16:11:24.822Z,31.83
2022-11-29T16:16:52.344Z,30.00
2022-11-29T16:19:24.759Z,31.83
2022-11-29T16:22:09.429Z,31.75
2022-11-29T16:24:47.306Z,32.30
2022-11-29T16:27:14.651Z,32.00
2022-11-29T16:29:45.078Z,31.58
2022-11-29T16:35:17.472Z,24.75
2022-11-29T16:37:45.788Z,22.20
2022-11-29T16:40:27.903Z,22.83
2022-11-29T16:43:03.459Z,21.45
2022-11-29T16:45:39.785Z,21.50
2022-11-29T16:48:27.691Z,21.83
2022-11-29T16:51:09.426Z,19.67
2022-11-29T16:53:38.094Z,18.75
2022-11-29T16:56:05.736Z,18.58
2022-11-29T16:58:36.377Z,25.85
2022-11-29T17:01:19.597Z,28.13
2022-11-29T17:03:46.219Z,29.77
2022-11-29T17:06:15.851Z,29.95
2022-11-29T17:08:45.650Z,29.80
2022-11-29T17:11:12.278Z,28.50
2022-11-29T17:13:39.318Z,30.23
2022-11-29T17:16:11.998Z,29.17
2022-11-29T17:18:40.827Z,30.30
2022-11-29T17:21:16.912Z,29.00
2022-11-29T17:23:43.468Z,29.55
2022-11-29T17:26:10.264Z,30.27
2022-11-29T17:28:36.811Z,32.13
2022-11-29T17:31:09.812Z,32.05
2022-11-29T17:33:36.338Z,32.10
2022-11-29T17:36:12.762Z,32.13
2022-11-29T17:38:39.313Z,34.60
2022-11-29T17:41:17.871Z,30.80
2022-11-29T17:43:44.376Z,31.20
2022-11-29T17:46:20.986Z,29.73
2022-11-29T17:48:48.197Z,27.90
2022-11-29T17:51:43.696Z,28.25
2022-11-29T17:54:04.347Z,28.15
2022-11-29T17:56:31.303Z,28.08
2022-11-29T17:59:00.689Z,28.50
2022-11-29T18:01:29.321Z,28.90
2022-11-29T18:03:59.084Z,28.88
2022-11-29T18:06:28.405Z,27.00
2022-11-29T18:09:00.190Z,27.80
2022-11-29T18:11:40.325Z,29.08
2022-11-29T18:14:14.039Z,27.88
2022-11-29T18:16:45.264Z,30.27
2022-11-29T18:19:14.610Z,28.92
2022-11-29T18:21:42.651Z,35.20
2022-11-29T18:24:09.928Z,34.22
2022-11-29T18:26:37.792Z,33.17
2022-11-29T18:29:06.019Z,33.38
2022-11-29T18:31:35.793Z,32.70
2022-11-29T18:34:11.581Z,31.45
2022-11-29T18:36:43.903Z,30.92
2022-11-29T18:39:15.981Z,29.10
2022-11-29T18:41:44.498Z,29.30
2022-11-29T18:44:13.601Z,30.50
2022-11-29T18:46:45.050Z,31.13
2022-11-29T18:49:14.401Z,30.38
2022-11-29T18:51:45.018Z,28.80
2022-11-29T18:54:12.630Z,27.63
2022-11-29T18:56:39.415Z,26.85
2022-11-29T18:59:10.821Z,25.67
2022-11-29T19:01:43.028Z,25.25
2022-11-29T19:04:15.705Z,22.80
2022-11-29T19:06:43.024Z,21.08
2022-11-29T19:09:21.550Z,18.63
2022-11-29T19:11:51.165Z,17.33
2022-11-29T19:14:18.860Z,16.95
2022-11-29T19:16:47.621Z,15.38
2022-11-29T19:19:14.498Z,17.88
2022-11-29T19:21:41.505Z,16.70
2022-11-29T19:24:14.444Z,18.30
2022-11-29T19:26:44.790Z,18.52
2022-11-29T19:29:12.724Z,17.77
2022-11-29T19:31:39.384Z,19.63
2022-11-29T19:34:06.892Z,19.60
2022-11-29T19:36:33.917Z,21.40
2022-11-29T19:39:01.877Z,20.05
2022-11-29T19:41:33.685Z,21.58
2022-11-29T19:44:02.907Z,21.75
2022-11-29T19:46:32.330Z,21.73
2022-11-29T19:48:59.991Z,21.13
2022-11-29T19:51:28.119Z,24.33
2022-11-29T19:53:57.411Z,24.67
2022-11-29T19:56:24.423Z,24.77
2022-11-29T19:58:51.299Z,25.52
2022-11-29T20:01:22.600Z,29.98
2022-11-29T20:03:49.985Z,28.15
2022-11-29T20:06:17.735Z,26.90
2022-11-29T20:08:45.675Z,27.00
2022-11-29T20:11:16.506Z,26.55
2022-11-29T20:13:45.303Z,28.40
2022-11-29T20:16:18.374Z,28.70
2022-11-29T20:18:50.954Z,30.23
2022-11-29T20:21:25.653Z,29.73
2022-11-29T20:23:58.256Z,29.75
2022-11-29T20:26:26.889Z,30.45
2022-11-29T20:28:53.476Z,28.67
2022-11-29T20:31:22.715Z,30.17
2022-11-29T20:33:52.284Z,29.75
2022-11-29T20:36:53.011Z,28.27
2022-11-29T20:42:23.683Z,27.92
2022-11-29T20:44:56.508Z,28.17
2022-11-29T20:47:25.856Z,29.25
2022-11-29T20:49:52.850Z,27.77
2022-11-29T20:52:28.987Z,30.27
2022-11-29T20:54:55.465Z,28.50
2022-11-29T20:57:22.054Z,27.08
2022-11-29T20:59:48.641Z,28.02
2022-11-29T21:02:18.327Z,27.55
2022-11-29T21:04:45.123Z,23.35
2022-11-29T21:07:11.929Z,21.67
2022-11-29T21:09:38.478Z,19.13
2022-11-29T21:12:05.874Z,18.23
2022-11-29T21:14:32.647Z,18.08
2022-11-29T21:16:59.597Z,17.33
2022-11-29T21:19:26.547Z,17.80
2022-11-29T21:22:14.332Z,18.08
2022-11-29T21:24:52.889Z,20.50
2022-11-29T21:27:28.629Z,21.30
2022-11-29T21:29:55.719Z,21.63
2022-11-29T21:32:25.392Z,21.75
2022-11-29T21:34:52.538Z,22.60
2022-11-29T21:37:22.790Z,21.35
2022-11-29T21:39:51.595Z,21.17
2022-11-29T21:42:18.408Z,21.00
2022-11-29T21:44:45.380Z,19.08
2022-11-29T21:47:12.663Z,19.88
2022-11-29T21:49:40.025Z,21.10
2022-11-29T21:52:06.864Z,20.27
2022-11-29T21:54:33.487Z,21.33
2022-11-29T21:57:01.589Z,20.83
2022-11-29T21:59:28.436Z,21.00
2022-11-29T22:01:55.212Z,22.48
2022-11-29T22:04:21.960Z,23.48
2022-11-29T22:06:48.371Z,21.05
2022-11-29T22:09:14.820Z,21.42
2022-11-29T22:11:42.713Z,22.45
2022-11-29T22:14:14.672Z,20.98
2022-11-29T22:16:49.211Z,21.60
2022-11-29T22:19:21.342Z,21.58
2022-11-29T22:21:53.671Z,20.17
2022-11-29T22:24:23.278Z,21.70
2022-11-29T22:26:50.878Z,20.50
2022-11-29T22:29:18.151Z,20.42
2022-11-29T22:31:47.335Z,21.58
2022-11-29T22:34:14.486Z,20.80
2022-11-29T22:36:41.689Z,22.05
2022-11-29T22:39:09.518Z,21.30
2022-11-29T22:41:38.044Z,21.02
2022-11-29T22:44:05.409Z,21.58
2022-11-29T22:46:35.276Z,22.13
2022-11-29T22:49:03.072Z,20.55
2022-11-29T22:51:35.200Z,20.80
2022-11-29T22:54:07.309Z,21.88
2022-11-29T22:56:37.165Z,21.92
2022-11-29T22:59:04.288Z,20.50
2022-11-29T23:01:33.003Z,21.48
2022-11-29T23:04:04.016Z,21.02
2022-11-29T23:06:33.676Z,21.38
2022-11-29T23:09:06.374Z,21.80
2022-11-29T23:11:33.968Z,21.90
2022-11-29T23:14:00.990Z,23.00
2022-11-29T23:16:29.923Z,21.95
2022-11-29T23:18:58.150Z,22.58
2022-11-29T23:21:25.821Z,23.35
2022-11-29T23:23:56.383Z,22.70
2022-11-29T23:26:29.344Z,22.38
2022-11-29T23:28:56.411Z,22.25
2022-11-29T23:31:24.098Z,21.95
2022-11-29T23:33:50.987Z,21.80
2022-11-29T23:36:17.893Z,21.95
2022-11-29T23:38:44.387Z,21.67
2022-11-29T23:41:11.796Z,21.70
2022-11-29T23:43:40.573Z,23.17
2022-11-29T23:46:14.405Z,21.92
2022-11-29T23:48:42.595Z,22.48
2022-11-29T23:51:09.738Z,21.42
2022-11-29T23:53:36.631Z,21.50
2022-11-29T23:56:06.361Z,20.95
2022-11-29T23:58:33.710Z,21.08
